AIC163 VOBL-VOCI
Flight info
| Callsign | AIC163 |
|---|---|
| Flight time | 0h 43m |
| Altitude | 28000 |
| Route | AKTIM7B AKTIM DCT SATBI DCT CCB CCB1D |
| Aircraft | A320/M-SDE3FGHIRWY/LB1 |
Departure
| Time | 2026-05-05 15:41 |
|---|---|
| Airport | Kempegowda International Airport Bengaluru (VOBL) |
Arrival
| Time | 2026-05-05 16:24 |
|---|---|
| Airport | Cochin International Airport (VOCI) |
| Time | Latitude | Longitude | Altitude | Speed | Heading |
|---|---|---|---|---|---|
| 2026-05-05 14:35 | 13.20078 | 77.71592 | 3012 ft | 0 kts | 180° |
| 2026-05-05 15:26 | 13.20088 | 77.71592 | 3011 ft | 4 kts | 181° |
| 2026-05-05 15:27 | 13.20115 | 77.71593 | 3018 ft | 4 kts | 180° |
| 2026-05-05 15:27 | 13.20142 | 77.71592 | 3016 ft | 4 kts | 177° |
| 2026-05-05 15:27 | 13.20168 | 77.71589 | 3016 ft | 4 kts | 157° |
| 2026-05-05 15:27 | 13.20183 | 77.71577 | 3012 ft | 2 kts | 91° |
| 2026-05-05 15:28 | 13.20183 | 77.71576 | 3012 ft | 0 kts | 90° |
| 2026-05-05 15:33 | 13.20183 | 77.71577 | 3012 ft | 1 kts | 90° |
| 2026-05-05 15:33 | 13.20183 | 77.71594 | 3017 ft | 2 kts | 90° |
| 2026-05-05 15:33 | 13.20183 | 77.71616 | 3012 ft | 6 kts | 90° |
| 2026-05-05 15:33 | 13.20182 | 77.71677 | 3011 ft | 11 kts | 91° |
| 2026-05-05 15:34 | 13.20187 | 77.71761 | 3011 ft | 10 kts | 71° |
| 2026-05-05 15:34 | 13.20236 | 77.71787 | 3011 ft | 8 kts | 2° |
| 2026-05-05 15:34 | 13.20283 | 77.71787 | 3011 ft | 6 kts | 1° |
| 2026-05-05 15:34 | 13.20318 | 77.71788 | 3015 ft | 4 kts | 0° |
| 2026-05-05 15:35 | 13.20346 | 77.71788 | 3011 ft | 6 kts | 0° |
| 2026-05-05 15:35 | 13.20394 | 77.71788 | 3011 ft | 6 kts | 0° |
| 2026-05-05 15:35 | 13.20433 | 77.71788 | 3011 ft | 5 kts | 0° |
| 2026-05-05 15:35 | 13.20465 | 77.71789 | 3012 ft | 4 kts | 1° |
| 2026-05-05 15:36 | 13.20493 | 77.71789 | 3012 ft | 5 kts | 3° |
| 2026-05-05 15:36 | 13.20514 | 77.71808 | 3012 ft | 4 kts | 60° |
| 2026-05-05 15:36 | 13.20520 | 77.71865 | 3012 ft | 11 kts | 90° |
| 2026-05-05 15:36 | 13.20519 | 77.71963 | 3012 ft | 17 kts | 91° |
| 2026-05-05 15:37 | 13.20518 | 77.72097 | 3012 ft | 20 kts | 90° |
| 2026-05-05 15:37 | 13.20518 | 77.72204 | 3012 ft | 12 kts | 90° |
| 2026-05-05 15:37 | 13.20518 | 77.72262 | 3011 ft | 6 kts | 86° |
| 2026-05-05 15:37 | 13.20542 | 77.72285 | 3013 ft | 4 kts | 15° |
| 2026-05-05 15:38 | 13.20564 | 77.72286 | 3011 ft | 0 kts | 360° |
| 2026-05-05 15:38 | 13.20591 | 77.72286 | 3011 ft | 8 kts | 0° |
| 2026-05-05 15:39 | 13.20662 | 77.72275 | 3014 ft | 11 kts | 329° |
| 2026-05-05 15:39 | 13.20689 | 77.72217 | 3012 ft | 8 kts | 273° |
| 2026-05-05 15:39 | 13.20690 | 77.72179 | 3012 ft | 0 kts | 270° |
| 2026-05-05 15:40 | 13.20691 | 77.72055 | 3011 ft | 50 kts | 270° |
| 2026-05-05 15:40 | 13.20695 | 77.71469 | 3011 ft | 113 kts | 270° |
| 2026-05-05 15:40 | 13.20706 | 77.70472 | 3014 ft | 163 kts | 270° |
| 2026-05-05 15:41 | 13.20740 | 77.69212 | 3312 ft | 185 kts | 273° |
| 2026-05-05 15:41 | 13.21055 | 77.67829 | 3691 ft | 211 kts | 291° |
| 2026-05-05 15:41 | 13.21827 | 77.66445 | 3873 ft | 235 kts | 303° |
| 2026-05-05 15:41 | 13.22748 | 77.64985 | 4208 ft | 255 kts | 303° |
| 2026-05-05 15:42 | 13.23715 | 77.63380 | 4516 ft | 279 kts | 302° |
| 2026-05-05 15:42 | 13.24738 | 77.61607 | 5024 ft | 293 kts | 301° |
| 2026-05-05 15:42 | 13.25771 | 77.59823 | 5943 ft | 288 kts | 302° |
| 2026-05-05 15:42 | 13.26792 | 77.58053 | 6689 ft | 289 kts | 302° |
| 2026-05-05 15:43 | 13.27821 | 77.56288 | 6883 ft | 285 kts | 303° |
| 2026-05-05 15:43 | 13.28840 | 77.54545 | 7009 ft | 283 kts | 302° |
| 2026-05-05 15:43 | 13.29512 | 77.52665 | 6997 ft | 288 kts | 276° |
| 2026-05-05 15:43 | 13.29178 | 77.50655 | 6920 ft | 290 kts | 243° |
| 2026-05-05 15:44 | 13.27883 | 77.49080 | 6997 ft | 293 kts | 218° |
| 2026-05-05 15:44 | 13.26133 | 77.48016 | 7015 ft | 293 kts | 207° |
| 2026-05-05 15:44 | 13.24338 | 77.47015 | 7016 ft | 294 kts | 209° |
| 2026-05-05 15:44 | 13.22561 | 77.45971 | 7018 ft | 294 kts | 210° |
| 2026-05-05 15:45 | 13.20791 | 77.44909 | 7016 ft | 295 kts | 210° |
| 2026-05-05 15:45 | 13.18995 | 77.43848 | 7286 ft | 298 kts | 206° |
| 2026-05-05 15:45 | 13.17044 | 77.43205 | 8089 ft | 300 kts | 187° |
| 2026-05-05 15:45 | 13.14962 | 77.43243 | 8848 ft | 302 kts | 167° |
| 2026-05-05 15:46 | 13.13000 | 77.44001 | 9571 ft | 304 kts | 147° |
| 2026-05-05 15:46 | 13.11376 | 77.45389 | 10155 ft | 312 kts | 128° |
| 2026-05-05 15:46 | 13.10133 | 77.47296 | 10339 ft | 333 kts | 119° |
| 2026-05-05 15:46 | 13.08907 | 77.49391 | 10725 ft | 347 kts | 119° |
| 2026-05-05 15:47 | 13.07649 | 77.51528 | 11354 ft | 352 kts | 119° |
| 2026-05-05 15:47 | 13.06799 | 77.52951 | 11809 ft | 354 kts | 121° |
| 2026-05-05 15:47 | 13.04783 | 77.55631 | 12691 ft | 360 kts | 127° |
| 2026-05-05 15:47 | 13.03200 | 77.57639 | 13338 ft | 364 kts | 127° |
| 2026-05-05 15:48 | 13.01600 | 77.59669 | 13856 ft | 368 kts | 127° |
| 2026-05-05 15:48 | 12.99990 | 77.61713 | 13987 ft | 368 kts | 127° |
| 2026-05-05 15:48 | 12.98390 | 77.63739 | 14025 ft | 367 kts | 129° |
| 2026-05-05 15:48 | 12.96536 | 77.65512 | 14030 ft | 369 kts | 143° |
| 2026-05-05 15:49 | 12.94298 | 77.66802 | 14030 ft | 370 kts | 157° |
| 2026-05-05 15:49 | 12.91832 | 77.67511 | 14030 ft | 370 kts | 171° |
| 2026-05-05 15:49 | 12.89265 | 77.67603 | 14030 ft | 370 kts | 185° |
| 2026-05-05 15:49 | 12.86695 | 77.67366 | 14029 ft | 370 kts | 185° |
| 2026-05-05 15:50 | 12.84124 | 77.67129 | 14030 ft | 370 kts | 185° |
| 2026-05-05 15:50 | 12.81552 | 77.66897 | 14031 ft | 370 kts | 185° |
| 2026-05-05 15:50 | 12.78985 | 77.66671 | 14031 ft | 370 kts | 185° |
| 2026-05-05 15:50 | 12.76448 | 77.66450 | 14032 ft | 370 kts | 185° |
| 2026-05-05 15:51 | 12.73874 | 77.66224 | 14032 ft | 370 kts | 185° |
| 2026-05-05 15:51 | 12.71300 | 77.65996 | 14277 ft | 373 kts | 185° |
| 2026-05-05 15:51 | 12.68706 | 77.65767 | 14904 ft | 375 kts | 185° |
| 2026-05-05 15:51 | 12.66095 | 77.65536 | 15536 ft | 376 kts | 185° |
| 2026-05-05 15:52 | 12.63474 | 77.65305 | 16136 ft | 379 kts | 185° |
| 2026-05-05 15:52 | 12.60834 | 77.65072 | 16688 ft | 381 kts | 185° |
| 2026-05-05 15:52 | 12.58186 | 77.64836 | 17307 ft | 382 kts | 185° |
| 2026-05-05 15:52 | 12.55568 | 77.64602 | 17892 ft | 384 kts | 185° |
| 2026-05-05 15:53 | 12.52897 | 77.64349 | 18466 ft | 385 kts | 186° |
| 2026-05-05 15:53 | 12.50227 | 77.64038 | 18956 ft | 386 kts | 188° |
| 2026-05-05 15:53 | 12.47552 | 77.63686 | 19427 ft | 388 kts | 188° |
| 2026-05-05 15:53 | 12.44860 | 77.63312 | 19881 ft | 391 kts | 188° |
| 2026-05-05 15:54 | 12.42156 | 77.62937 | 20343 ft | 393 kts | 188° |
| 2026-05-05 15:54 | 12.39460 | 77.62572 | 20790 ft | 395 kts | 188° |
| 2026-05-05 15:54 | 12.36724 | 77.62212 | 21242 ft | 397 kts | 188° |
| 2026-05-05 15:54 | 12.33969 | 77.61857 | 21653 ft | 400 kts | 188° |
| 2026-05-05 15:55 | 12.31196 | 77.61504 | 22076 ft | 402 kts | 188° |
| 2026-05-05 15:55 | 12.28409 | 77.61148 | 22490 ft | 405 kts | 188° |
| 2026-05-05 15:55 | 12.25639 | 77.60792 | 22896 ft | 407 kts | 188° |
| 2026-05-05 15:55 | 12.22815 | 77.60427 | 23301 ft | 409 kts | 188° |
| 2026-05-05 15:56 | 12.19981 | 77.60061 | 23678 ft | 412 kts | 188° |
| 2026-05-05 15:56 | 12.17131 | 77.59693 | 23996 ft | 414 kts | 188° |
| 2026-05-05 15:56 | 12.14251 | 77.59321 | 24321 ft | 416 kts | 188° |
| 2026-05-05 15:56 | 12.11360 | 77.58946 | 24619 ft | 419 kts | 188° |
| 2026-05-05 15:57 | 12.08496 | 77.58564 | 24912 ft | 422 kts | 190° |
| 2026-05-05 15:57 | 12.05646 | 77.57841 | 25219 ft | 423 kts | 200° |
| 2026-05-05 15:57 | 12.02952 | 77.56631 | 25522 ft | 424 kts | 208° |
| 2026-05-05 15:57 | 12.00318 | 77.55251 | 25834 ft | 426 kts | 207° |
| 2026-05-05 15:58 | 11.97666 | 77.53868 | 26148 ft | 428 kts | 207° |
| 2026-05-05 15:58 | 11.95004 | 77.52482 | 26443 ft | 430 kts | 207° |
| 2026-05-05 15:58 | 11.93235 | 77.51560 | 26668 ft | 432 kts | 207° |
| 2026-05-05 15:58 | 11.90555 | 77.50159 | 26963 ft | 433 kts | 207° |
| 2026-05-05 15:59 | 11.87862 | 77.48751 | 27243 ft | 436 kts | 207° |
| 2026-05-05 15:59 | 11.85154 | 77.47336 | 27514 ft | 438 kts | 207° |
| 2026-05-05 15:59 | 11.82429 | 77.45915 | 27806 ft | 440 kts | 207° |
| 2026-05-05 15:59 | 11.79697 | 77.44493 | 27965 ft | 439 kts | 207° |
| 2026-05-05 16:00 | 11.77020 | 77.43102 | 27992 ft | 425 kts | 207° |
| 2026-05-05 16:00 | 11.74420 | 77.41753 | 27983 ft | 421 kts | 207° |
| 2026-05-05 16:00 | 11.71808 | 77.40396 | 27981 ft | 421 kts | 207° |
| 2026-05-05 16:00 | 11.69198 | 77.39038 | 27988 ft | 420 kts | 207° |
| 2026-05-05 16:01 | 11.66578 | 77.37675 | 27978 ft | 421 kts | 207° |
| 2026-05-05 16:01 | 11.61390 | 77.34977 | 27968 ft | 421 kts | 207° |
| 2026-05-05 16:01 | 11.58791 | 77.33623 | 27968 ft | 421 kts | 207° |
| 2026-05-05 16:02 | 11.56184 | 77.32264 | 27968 ft | 421 kts | 207° |
| 2026-05-05 16:02 | 11.53567 | 77.30899 | 27966 ft | 420 kts | 207° |
| 2026-05-05 16:02 | 11.50954 | 77.29538 | 27963 ft | 420 kts | 207° |
| 2026-05-05 16:02 | 11.48383 | 77.28204 | 27964 ft | 420 kts | 207° |
| 2026-05-05 16:03 | 11.45775 | 77.26851 | 27943 ft | 420 kts | 207° |
| 2026-05-05 16:03 | 11.43167 | 77.25497 | 27941 ft | 420 kts | 207° |
| 2026-05-05 16:03 | 11.40556 | 77.24143 | 27942 ft | 420 kts | 207° |
| 2026-05-05 16:03 | 11.37937 | 77.22786 | 27963 ft | 420 kts | 207° |
| 2026-05-05 16:04 | 11.35307 | 77.21424 | 27971 ft | 425 kts | 207° |
| 2026-05-05 16:04 | 11.32734 | 77.20091 | 27856 ft | 413 kts | 207° |
| 2026-05-05 16:04 | 11.30204 | 77.18780 | 27472 ft | 407 kts | 207° |
| 2026-05-05 16:04 | 11.27691 | 77.17479 | 27025 ft | 402 kts | 207° |
| 2026-05-05 16:05 | 11.25204 | 77.16191 | 26562 ft | 399 kts | 207° |
| 2026-05-05 16:05 | 11.22732 | 77.14912 | 26109 ft | 396 kts | 207° |
| 2026-05-05 16:05 | 11.20323 | 77.13666 | 25661 ft | 393 kts | 207° |
| 2026-05-05 16:05 | 11.17889 | 77.12409 | 25207 ft | 390 kts | 207° |
| 2026-05-05 16:06 | 11.15478 | 77.11166 | 24765 ft | 387 kts | 207° |
| 2026-05-05 16:06 | 11.13076 | 77.09927 | 24338 ft | 384 kts | 207° |
| 2026-05-05 16:06 | 11.10697 | 77.08698 | 23915 ft | 382 kts | 207° |
| 2026-05-05 16:06 | 11.08338 | 77.07477 | 23490 ft | 379 kts | 207° |
| 2026-05-05 16:07 | 11.05994 | 77.06263 | 22990 ft | 377 kts | 207° |
| 2026-05-05 16:07 | 11.03698 | 77.05073 | 22542 ft | 374 kts | 207° |
| 2026-05-05 16:07 | 11.01387 | 77.03881 | 22105 ft | 371 kts | 207° |
| 2026-05-05 16:07 | 10.99082 | 77.02706 | 21664 ft | 368 kts | 205° |
| 2026-05-05 16:08 | 10.96641 | 77.01936 | 21249 ft | 366 kts | 193° |
| 2026-05-05 16:08 | 10.94122 | 77.01541 | 20835 ft | 364 kts | 187° |
| 2026-05-05 16:08 | 10.91622 | 77.01194 | 20417 ft | 360 kts | 197° |
| 2026-05-05 16:08 | 10.89358 | 77.00161 | 20060 ft | 355 kts | 216° |
| 2026-05-05 16:09 | 10.87553 | 76.98470 | 19947 ft | 353 kts | 231° |
| 2026-05-05 16:09 | 10.85985 | 76.96575 | 19965 ft | 355 kts | 231° |
| 2026-05-05 16:09 | 10.84390 | 76.94649 | 19965 ft | 355 kts | 231° |
| 2026-05-05 16:09 | 10.82799 | 76.92729 | 19962 ft | 355 kts | 231° |
| 2026-05-05 16:10 | 10.81203 | 76.90803 | 19958 ft | 356 kts | 230° |
| 2026-05-05 16:10 | 10.79599 | 76.88866 | 19957 ft | 357 kts | 231° |
| 2026-05-05 16:10 | 10.78002 | 76.86937 | 19948 ft | 356 kts | 231° |
| 2026-05-05 16:10 | 10.76430 | 76.85039 | 19948 ft | 355 kts | 230° |
| 2026-05-05 16:11 | 10.74847 | 76.83126 | 19950 ft | 355 kts | 230° |
| 2026-05-05 16:11 | 10.70075 | 76.77361 | 19936 ft | 354 kts | 230° |
| 2026-05-05 16:12 | 10.68484 | 76.75441 | 19937 ft | 354 kts | 230° |
| 2026-05-05 16:12 | 10.65327 | 76.71625 | 19934 ft | 355 kts | 230° |
| 2026-05-05 16:13 | 10.60542 | 76.65850 | 19936 ft | 356 kts | 230° |
| 2026-05-05 16:13 | 10.58943 | 76.63919 | 19918 ft | 357 kts | 230° |
| 2026-05-05 16:13 | 10.57348 | 76.61995 | 19602 ft | 353 kts | 230° |
| 2026-05-05 16:14 | 10.54211 | 76.58216 | 18818 ft | 349 kts | 230° |
| 2026-05-05 16:14 | 10.51089 | 76.54461 | 18035 ft | 346 kts | 230° |
| 2026-05-05 16:15 | 10.48002 | 76.50746 | 17208 ft | 341 kts | 230° |
| 2026-05-05 16:15 | 10.44960 | 76.47090 | 16342 ft | 340 kts | 230° |
| 2026-05-05 16:16 | 10.41913 | 76.43428 | 15586 ft | 337 kts | 231° |
| 2026-05-05 16:16 | 10.38898 | 76.39789 | 14851 ft | 335 kts | 231° |
| 2026-05-05 16:17 | 10.35913 | 76.36191 | 13926 ft | 338 kts | 231° |
| 2026-05-05 16:17 | 10.34398 | 76.34369 | 12971 ft | 343 kts | 230° |
| 2026-05-05 16:18 | 10.31297 | 76.30636 | 11062 ft | 347 kts | 230° |
| 2026-05-05 16:18 | 10.29737 | 76.28758 | 10136 ft | 347 kts | 230° |
| 2026-05-05 16:18 | 10.26640 | 76.25040 | 8249 ft | 345 kts | 230° |
| 2026-05-05 16:19 | 10.25090 | 76.23182 | 7311 ft | 343 kts | 230° |
| 2026-05-05 16:19 | 10.23556 | 76.21344 | 6401 ft | 340 kts | 230° |
| 2026-05-05 16:19 | 10.19602 | 76.18984 | 4507 ft | 334 kts | 195° |
| 2026-05-05 16:20 | 10.15110 | 76.18802 | 2663 ft | 328 kts | 155° |
| 2026-05-05 16:20 | 10.12739 | 76.22132 | 1998 ft | 281 kts | 90° |
| 2026-05-05 16:21 | 10.13392 | 76.25608 | 2001 ft | 231 kts | 74° |
| 2026-05-05 16:22 | 10.14367 | 76.29645 | 2018 ft | 163 kts | 74° |
| 2026-05-05 16:22 | 10.14783 | 76.31814 | 1917 ft | 154 kts | 84° |
| 2026-05-05 16:23 | 10.14864 | 76.33979 | 1225 ft | 152 kts | 85° |
| 2026-05-05 16:23 | 10.14917 | 76.35068 | 823 ft | 156 kts | 85° |
| 2026-05-05 16:23 | 10.15006 | 76.37207 | 319 ft | 146 kts | 88° |
| 2026-05-05 16:24 | 10.15045 | 76.38225 | 139 ft | 143 kts | 87° |
| 2026-05-05 16:24 | 10.15083 | 76.39210 | 40 ft | 128 kts | 88° |
| 2026-05-05 16:24 | 10.15123 | 76.40316 | 39 ft | 39 kts | 88° |
| 2026-05-05 16:25 | 10.15132 | 76.40579 | 38 ft | 35 kts | 87° |
| 2026-05-05 16:25 | 10.15212 | 76.40846 | 37 ft | 9 kts | 60° |
| 2026-05-05 16:25 | 10.15243 | 76.40891 | 38 ft | 7 kts | 50° |
| 2026-05-05 16:26 | 10.15302 | 76.40928 | 38 ft | 3 kts | 345° |
| 2026-05-05 16:26 | 10.15317 | 76.40911 | 38 ft | 2 kts | 289° |
| 2026-05-05 16:27 | 10.15317 | 76.40872 | 38 ft | 7 kts | 267° |
| 2026-05-05 16:27 | 10.15315 | 76.40827 | 38 ft | 6 kts | 268° |
| 2026-05-05 16:27 | 10.15314 | 76.40788 | 38 ft | 5 kts | 268° |
| 2026-05-05 16:27 | 10.15313 | 76.40755 | 38 ft | 4 kts | 268° |
| 2026-05-05 16:28 | 10.15312 | 76.40730 | 38 ft | 3 kts | 268° |
| 2026-05-05 16:28 | 10.15311 | 76.40707 | 38 ft | 5 kts | 268° |
| 2026-05-05 16:28 | 10.15309 | 76.40663 | 38 ft | 6 kts | 268° |
| 2026-05-05 16:28 | 10.15308 | 76.40626 | 38 ft | 5 kts | 268° |
| 2026-05-05 16:29 | 10.15307 | 76.40598 | 38 ft | 3 kts | 268° |
| 2026-05-05 16:29 | 10.15306 | 76.40578 | 38 ft | 2 kts | 268° |
| 2026-05-05 16:29 | 10.15306 | 76.40562 | 38 ft | 3 kts | 268° |
| 2026-05-05 16:29 | 10.15304 | 76.40513 | 38 ft | 11 kts | 268° |
| 2026-05-05 16:30 | 10.15300 | 76.40416 | 38 ft | 15 kts | 268° |
| 2026-05-05 16:30 | 10.15296 | 76.40304 | 38 ft | 16 kts | 268° |
| 2026-05-05 16:30 | 10.15291 | 76.40185 | 39 ft | 18 kts | 268° |
| 2026-05-05 16:30 | 10.15286 | 76.40054 | 39 ft | 19 kts | 269° |
| 2026-05-05 16:31 | 10.15297 | 76.39954 | 37 ft | 10 kts | 318° |
| 2026-05-05 16:31 | 10.15357 | 76.39942 | 39 ft | 8 kts | 346° |
| 2026-05-05 16:31 | 10.15378 | 76.39900 | 39 ft | 6 kts | 270° |
| 2026-05-05 16:31 | 10.15377 | 76.39858 | 39 ft | 5 kts | 268° |
| 2026-05-05 16:32 | 10.15375 | 76.39823 | 39 ft | 5 kts | 268° |
| 2026-05-05 16:32 | 10.15374 | 76.39787 | 39 ft | 6 kts | 268° |
| 2026-05-05 16:32 | 10.15372 | 76.39740 | 39 ft | 6 kts | 268° |
| 2026-05-05 16:32 | 10.15370 | 76.39697 | 39 ft | 7 kts | 268° |
| 2026-05-05 16:33 | 10.15368 | 76.39629 | 39 ft | 10 kts | 268° |
| 2026-05-05 16:33 | 10.15366 | 76.39586 | 39 ft | 1 kts | 268° |
| 2026-05-05 16:33 | 10.15366 | 76.39582 | 39 ft | 0 kts | 268° |
| 2026-05-05 16:33 | 10.15366 | 76.39575 | 39 ft | 1 kts | 276° |
| 2026-05-05 16:34 | 10.15375 | 76.39563 | 39 ft | 3 kts | 314° |
| 2026-05-05 16:34 | 10.15394 | 76.39555 | 39 ft | 4 kts | 345° |
| 2026-05-05 16:34 | 10.15420 | 76.39554 | 39 ft | 3 kts | 359° |
| 2026-05-05 16:34 | 10.15436 | 76.39553 | 39 ft | 1 kts | 358° |
| 2026-05-05 16:35 | 10.15442 | 76.39553 | 39 ft | 1 kts | 358° |
| 2026-05-05 16:35 | 10.15444 | 76.39553 | 39 ft | 0 kts | 358° |